createdAt,value
2019-02-05T00:00:48.688Z,19.37
2019-02-05T00:01:30.675Z,12.98
2019-02-05T00:02:12.807Z,13.30
2019-02-05T00:02:50.843Z,15.75
2019-02-05T00:03:28.689Z,16.55
2019-02-05T00:04:06.550Z,14.58
2019-02-05T00:04:44.751Z,12.07
2019-02-05T00:05:22.599Z,14.80
2019-02-05T00:06:00.388Z,13.80
2019-02-05T00:06:43.495Z,17.00
2019-02-05T00:07:20.576Z,13.88
2019-02-05T00:08:00.106Z,17.82
2019-02-05T00:08:37.927Z,14.35
2019-02-05T00:09:15.983Z,19.62
2019-02-05T00:09:56.373Z,16.70
2019-02-05T00:10:40.195Z,12.28
2019-02-05T00:11:17.942Z,16.85
2019-02-05T00:11:55.519Z,14.23
2019-02-05T00:12:35.121Z,13.00
2019-02-05T00:13:12.621Z,14.63
2019-02-05T00:13:49.867Z,12.70
2019-02-05T00:14:27.473Z,16.85
2019-02-05T00:15:05.191Z,15.78
2019-02-05T00:15:43.409Z,11.28
2019-02-05T00:16:20.931Z,13.72
2019-02-05T00:16:58.459Z,13.88
2019-02-05T00:17:36.091Z,15.10
2019-02-05T00:18:14.373Z,16.35
2019-02-05T00:18:51.826Z,14.73
2019-02-05T00:19:29.447Z,14.38
2019-02-05T00:20:07.869Z,13.68
2019-02-05T00:20:46.078Z,14.87
2019-02-05T00:21:26.451Z,13.50
2019-02-05T00:22:09.011Z,15.40
2019-02-05T00:22:46.788Z,13.38
2019-02-05T00:23:24.259Z,14.15
2019-02-05T00:24:02.399Z,16.70
2019-02-05T00:24:39.499Z,11.57
2019-02-05T00:25:16.992Z,13.85
2019-02-05T00:26:05.610Z,14.23
2019-02-05T00:26:34.315Z,11.57
2019-02-05T00:27:12.435Z,10.15
2019-02-05T00:27:49.901Z,12.18
2019-02-05T00:28:27.359Z,14.65
2019-02-05T00:29:06.028Z,12.95
2019-02-05T00:29:44.095Z,12.15
2019-02-05T00:30:22.394Z,15.00
2019-02-05T00:31:00.255Z,14.20
2019-02-05T00:31:38.495Z,13.70
2019-02-05T00:32:16.512Z,13.95
2019-02-05T00:32:55.015Z,11.88
2019-02-05T00:33:33.289Z,10.58
2019-02-05T00:34:10.830Z,12.25
2019-02-05T00:34:49.109Z,13.60
2019-02-05T00:35:27.443Z,12.55
2019-02-05T00:36:05.923Z,13.25
2019-02-05T00:36:44.116Z,13.95
2019-02-05T00:37:21.901Z,11.57
2019-02-05T00:38:00.393Z,10.28
2019-02-05T00:38:38.187Z,12.80
2019-02-05T00:39:15.879Z,15.00
2019-02-05T00:39:53.564Z,13.68
2019-02-05T00:40:31.665Z,14.33
2019-02-05T00:41:09.871Z,12.60
2019-02-05T00:41:48.391Z,14.23
2019-02-05T00:42:25.880Z,16.25
2019-02-05T00:43:04.043Z,11.83
2019-02-05T00:43:41.911Z,15.10
2019-02-05T00:44:20.099Z,11.22
2019-02-05T00:44:58.095Z,9.70
2019-02-05T00:45:36.237Z,10.98
2019-02-05T00:46:14.294Z,11.33
2019-02-05T00:46:51.767Z,10.85
2019-02-05T00:47:32.227Z,12.75
2019-02-05T00:48:09.487Z,12.95
2019-02-05T00:48:47.360Z,15.00
2019-02-05T00:49:24.995Z,11.25
2019-02-05T00:50:02.730Z,12.28
2019-02-05T00:50:40.209Z,11.50
2019-02-05T00:51:18.205Z,11.80
2019-02-05T00:51:55.627Z,16.90
2019-02-05T00:52:32.749Z,11.80
2019-02-05T00:53:10.138Z,11.70
2019-02-05T00:53:48.027Z,12.65
2019-02-05T00:54:25.703Z,12.05
2019-02-05T00:55:03.787Z,10.05
2019-02-05T00:55:41.610Z,11.88
2019-02-05T00:56:19.367Z,16.55
2019-02-05T00:56:56.847Z,11.00
2019-02-05T00:57:34.518Z,13.70
2019-02-05T00:58:11.795Z,12.37
2019-02-05T00:58:49.279Z,18.40
2019-02-05T00:59:26.862Z,15.00
2019-02-05T01:00:06.151Z,11.22
2019-02-05T01:00:43.892Z,11.75
2019-02-05T01:01:21.281Z,17.50
2019-02-05T01:01:58.516Z,11.53
2019-02-05T01:02:36.629Z,12.25
2019-02-05T01:03:14.223Z,15.20
2019-02-05T01:03:52.202Z,12.10
2019-02-05T01:04:30.115Z,11.63
2019-02-05T01:05:07.887Z,10.35
2019-02-05T01:05:45.663Z,10.60
2019-02-05T01:06:23.459Z,11.83
2019-02-05T01:07:01.572Z,12.43
2019-02-05T01:07:39.427Z,9.78
2019-02-05T01:08:17.807Z,11.53
2019-02-05T01:08:55.619Z,17.48
2019-02-05T01:09:33.355Z,9.70
2019-02-05T01:10:11.208Z,14.83
2019-02-05T01:10:48.568Z,11.00
2019-02-05T01:11:25.368Z,12.68
2019-02-05T01:12:03.236Z,12.73
2019-02-05T01:12:40.804Z,12.47
2019-02-05T01:13:18.783Z,11.38
2019-02-05T01:13:55.491Z,10.08
2019-02-05T01:14:33.119Z,12.28
2019-02-05T01:15:13.099Z,10.68
2019-02-05T01:15:50.828Z,11.10
2019-02-05T01:16:28.563Z,10.40
2019-02-05T01:17:06.399Z,10.00
2019-02-05T01:17:44.088Z,17.20
2019-02-05T01:18:21.496Z,12.43
2019-02-05T01:18:59.472Z,11.60
2019-02-05T01:19:42.421Z,16.02
2019-02-05T01:20:19.467Z,11.78
2019-02-05T01:20:56.295Z,10.58
2019-02-05T01:21:34.116Z,9.60
2019-02-05T01:22:12.311Z,13.78
2019-02-05T01:22:50.431Z,11.75
2019-02-05T01:23:28.783Z,13.25
2019-02-05T01:24:07.521Z,11.83
2019-02-05T01:24:45.195Z,10.80
2019-02-05T01:25:24.313Z,11.57
2019-02-05T01:26:02.876Z,14.50
2019-02-05T01:26:40.839Z,10.40
2019-02-05T01:27:21.359Z,9.08
2019-02-05T01:27:59.203Z,10.03
2019-02-05T01:28:37.205Z,10.40
2019-02-05T01:29:15.173Z,10.82
2019-02-05T01:29:53.198Z,10.75
2019-02-05T01:30:31.312Z,10.15
2019-02-05T01:31:17.653Z,13.45
2019-02-05T01:31:54.927Z,12.35
2019-02-05T01:32:34.970Z,10.70
2019-02-05T01:33:15.763Z,14.35
2019-02-05T01:33:54.192Z,11.65
2019-02-05T01:34:31.930Z,9.85
2019-02-05T01:35:09.737Z,10.78
2019-02-05T01:35:46.439Z,11.93
2019-02-05T01:36:23.856Z,11.00
2019-02-05T01:37:01.628Z,13.28
2019-02-05T01:37:39.632Z,11.15
2019-02-05T01:38:16.807Z,8.18
2019-02-05T01:38:54.806Z,11.10
2019-02-05T01:39:32.556Z,13.90
2019-02-05T01:40:12.116Z,12.20
2019-02-05T01:40:50.390Z,12.43
2019-02-05T01:41:27.252Z,10.10
2019-02-05T01:42:05.224Z,11.88
2019-02-05T01:42:43.152Z,12.50
2019-02-05T01:43:20.916Z,10.72
2019-02-05T01:43:59.160Z,13.35
2019-02-05T01:44:37.040Z,11.78
2019-02-05T01:45:16.712Z,11.03
2019-02-05T01:45:54.448Z,14.43
2019-02-05T01:46:32.470Z,10.72
2019-02-05T01:47:11.312Z,10.63
2019-02-05T01:47:50.063Z,11.25
2019-02-05T01:48:28.414Z,10.60
2019-02-05T01:49:06.384Z,9.55
2019-02-05T01:49:44.427Z,11.53
2019-02-05T01:50:24.628Z,11.50
2019-02-05T01:51:02.619Z,12.03
2019-02-05T01:51:40.327Z,11.33
2019-02-05T01:52:18.374Z,11.43
2019-02-05T01:52:56.616Z,11.53
2019-02-05T01:53:34.460Z,15.03
2019-02-05T01:54:12.221Z,12.05
2019-02-05T01:54:49.774Z,11.60
2019-02-05T01:55:27.667Z,11.60
2019-02-05T01:56:05.576Z,8.60
2019-02-05T01:56:43.308Z,13.40
2019-02-05T01:57:21.275Z,10.90
2019-02-05T01:57:59.926Z,11.22
2019-02-05T01:58:37.592Z,14.93
2019-02-05T01:59:15.397Z,12.37
2019-02-05T01:59:53.900Z,10.38
2019-02-05T02:00:37.417Z,14.35
2019-02-05T02:01:14.588Z,17.67
2019-02-05T02:01:52.408Z,9.98
2019-02-05T02:02:30.512Z,11.68
2019-02-05T02:03:07.948Z,11.35
2019-02-05T02:03:45.032Z,9.83
2019-02-05T02:04:22.084Z,9.58
2019-02-05T02:05:00.384Z,9.65
2019-02-05T02:05:38.225Z,12.78
2019-02-05T02:06:16.053Z,16.77
2019-02-05T02:06:53.952Z,11.65
2019-02-05T02:07:32.359Z,15.78
2019-02-05T02:08:10.165Z,17.02
2019-02-05T02:08:48.019Z,14.13
2019-02-05T02:09:25.720Z,13.35
2019-02-05T02:10:03.035Z,10.18
2019-02-05T02:10:40.968Z,12.95
2019-02-05T02:11:18.544Z,10.98
2019-02-05T02:11:56.124Z,10.10
2019-02-05T02:12:33.342Z,11.95
2019-02-05T02:13:10.782Z,13.65
2019-02-05T02:13:47.902Z,10.75
2019-02-05T02:14:27.780Z,10.60
2019-02-05T02:15:05.702Z,12.37
2019-02-05T02:15:46.151Z,10.85
2019-02-05T02:16:23.238Z,11.80
2019-02-05T02:17:00.905Z,13.22
2019-02-05T02:17:39.168Z,10.10
2019-02-05T02:18:16.852Z,15.68
2019-02-05T02:18:54.861Z,12.88
2019-02-05T02:19:32.768Z,11.97
2019-02-05T02:20:12.364Z,11.05
2019-02-05T02:20:50.702Z,10.13
2019-02-05T02:21:28.180Z,10.55
2019-02-05T02:22:06.742Z,13.20
2019-02-05T02:22:44.971Z,13.72
2019-02-05T02:23:22.965Z,12.73
2019-02-05T02:24:00.441Z,15.83
2019-02-05T02:24:37.890Z,11.10
2019-02-05T02:25:16.880Z,10.15
2019-02-05T02:25:54.378Z,12.28
2019-02-05T02:26:32.188Z,14.23
2019-02-05T02:27:10.258Z,12.85
2019-02-05T02:27:49.340Z,12.50
2019-02-05T02:28:27.789Z,14.60
2019-02-05T02:29:06.607Z,11.78
2019-02-05T02:29:44.384Z,10.05
2019-02-05T02:30:27.384Z,11.55
2019-02-05T02:31:04.974Z,11.85
2019-02-05T02:31:42.751Z,14.55
2019-02-05T02:32:20.445Z,13.80
2019-02-05T02:32:57.839Z,13.25
2019-02-05T02:33:35.295Z,13.28
2019-02-05T02:34:13.368Z,12.07
2019-02-05T02:34:51.237Z,13.95
2019-02-05T02:35:28.868Z,14.05
2019-02-05T02:36:06.338Z,15.38
2019-02-05T02:36:44.044Z,12.95
2019-02-05T02:37:21.384Z,17.87
2019-02-05T02:37:59.404Z,14.13
2019-02-05T02:38:37.070Z,13.95
2019-02-05T02:39:15.188Z,14.60
2019-02-05T02:39:53.200Z,13.32
2019-02-05T02:40:30.726Z,13.48
2019-02-05T02:41:08.131Z,16.05
2019-02-05T02:41:45.789Z,14.47
2019-02-05T02:42:23.479Z,11.70
2019-02-05T02:43:01.358Z,12.55
2019-02-05T02:43:39.348Z,11.05
2019-02-05T02:44:16.844Z,15.08
2019-02-05T02:44:54.420Z,14.68
2019-02-05T02:45:31.900Z,17.65
2019-02-05T02:46:12.036Z,16.05
2019-02-05T02:46:50.155Z,13.65
2019-02-05T02:47:27.916Z,12.78
2019-02-05T02:48:05.397Z,16.02
2019-02-05T02:48:42.788Z,13.25
2019-02-05T02:49:20.250Z,14.20
2019-02-05T02:49:57.952Z,14.58
2019-02-05T02:50:36.072Z,13.98
2019-02-05T02:51:13.610Z,13.62
2019-02-05T02:51:51.821Z,15.38
2019-02-05T02:52:29.596Z,13.05
2019-02-05T02:53:07.394Z,14.28
2019-02-05T02:53:44.854Z,15.38
2019-02-05T02:54:22.647Z,15.08
2019-02-05T02:55:00.019Z,15.10
2019-02-05T02:55:37.394Z,17.75
2019-02-05T02:56:14.856Z,17.10
2019-02-05T02:57:04.362Z,15.35
2019-02-05T02:57:31.920Z,14.68
2019-02-05T02:58:10.060Z,17.12
2019-02-05T02:58:48.064Z,14.58
2019-02-05T02:59:26.052Z,13.38
2019-02-05T03:00:03.943Z,17.80
2019-02-05T03:00:41.316Z,14.75
2019-02-05T03:01:19.454Z,17.42
2019-02-05T03:01:57.364Z,15.35
2019-02-05T03:02:35.391Z,18.42
2019-02-05T03:03:12.477Z,16.60
2019-02-05T03:03:49.858Z,15.30
2019-02-05T03:04:27.568Z,16.67
2019-02-05T03:05:06.421Z,16.07
2019-02-05T03:05:44.390Z,15.83
2019-02-05T03:06:22.536Z,14.65
2019-02-05T03:07:00.612Z,15.53
2019-02-05T03:07:38.188Z,18.85
2019-02-05T03:08:16.080Z,19.55
2019-02-05T03:08:53.864Z,22.40
2019-02-05T03:09:31.565Z,16.70
2019-02-05T03:10:12.203Z,20.30
2019-02-05T03:10:49.797Z,17.42
2019-02-05T03:11:28.000Z,20.12
2019-02-05T03:12:06.188Z,16.45
2019-02-05T03:12:43.965Z,17.98
2019-02-05T03:13:21.485Z,18.65
2019-02-05T03:13:58.920Z,19.82
2019-02-05T03:14:36.702Z,18.95
2019-02-05T03:15:15.376Z,18.15
2019-02-05T03:15:53.240Z,22.58
2019-02-05T03:16:30.638Z,19.40
2019-02-05T03:17:08.503Z,19.87
2019-02-05T03:17:46.400Z,16.95
2019-02-05T03:18:25.100Z,19.85
2019-02-05T03:19:02.716Z,17.48
2019-02-05T03:19:40.484Z,29.50
2019-02-05T03:20:18.808Z,20.05
2019-02-05T03:20:56.626Z,19.62
2019-02-05T03:21:34.091Z,17.60
2019-02-05T03:22:12.262Z,19.57
2019-02-05T03:22:49.756Z,20.72
2019-02-05T03:23:26.874Z,20.65
2019-02-05T03:24:05.301Z,16.55
2019-02-05T03:24:43.217Z,16.45
2019-02-05T03:25:21.931Z,24.07
2019-02-05T03:25:59.626Z,16.95
2019-02-05T03:26:37.668Z,17.73
2019-02-05T03:27:17.852Z,19.15
2019-02-05T03:27:54.454Z,21.05
2019-02-05T03:28:32.628Z,18.73
2019-02-05T03:29:10.020Z,16.37
2019-02-05T03:29:47.756Z,22.02
2019-02-05T03:30:25.891Z,19.90
2019-02-05T03:31:04.181Z,20.05
2019-02-05T03:31:41.704Z,18.37
2019-02-05T03:32:19.687Z,22.05
2019-02-05T03:32:57.831Z,20.57
2019-02-05T03:33:35.518Z,17.90
2019-02-05T03:34:13.506Z,17.30
2019-02-05T03:34:51.205Z,16.87
2019-02-05T03:35:29.285Z,19.10
2019-02-05T03:36:06.868Z,19.17
2019-02-05T03:36:45.039Z,21.25
2019-02-05T03:37:22.163Z,19.98
2019-02-05T03:37:59.903Z,20.82
2019-02-05T03:38:37.270Z,19.60
2019-02-05T03:39:15.087Z,15.23
2019-02-05T03:39:53.065Z,20.92
2019-02-05T03:41:07.809Z,17.55
2019-02-05T03:41:45.180Z,22.30
2019-02-05T03:42:22.353Z,18.70
2019-02-05T03:43:00.290Z,20.77
2019-02-05T03:43:38.970Z,18.00
2019-02-05T03:44:17.043Z,19.35
2019-02-05T03:44:54.568Z,22.45
2019-02-05T03:45:33.293Z,23.57
2019-02-05T03:46:15.635Z,21.33
2019-02-05T03:46:53.177Z,23.25
2019-02-05T03:47:30.764Z,20.43
2019-02-05T03:48:08.591Z,18.60
2019-02-05T03:48:50.782Z,19.15
2019-02-05T03:49:28.604Z,20.25
2019-02-05T03:50:07.220Z,24.87
2019-02-05T03:50:47.561Z,23.42
2019-02-05T03:51:40.965Z,24.35
2019-02-05T03:52:26.379Z,21.07
2019-02-05T03:53:06.386Z,19.82
2019-02-05T03:53:47.122Z,19.30
2019-02-05T03:55:14.768Z,20.27
2019-02-05T03:56:17.636Z,25.08
2019-02-05T03:57:30.937Z,20.30
2019-02-05T03:58:49.544Z,20.02
2019-02-05T04:00:14.177Z,22.20
2019-02-05T04:01:20.969Z,21.90
2019-02-05T04:02:25.355Z,19.00
2019-02-05T04:03:43.896Z,22.00
2019-02-05T04:04:55.066Z,24.85
2019-02-05T04:06:02.162Z,20.65
2019-02-05T04:07:30.001Z,21.07
2019-02-05T04:08:43.248Z,18.77
2019-02-05T04:10:13.760Z,24.18
2019-02-05T04:11:17.675Z,21.37
2019-02-05T04:12:12.551Z,19.23
2019-02-05T04:13:30.312Z,25.52
2019-02-05T04:14:41.108Z,20.77
2019-02-05T04:16:07.336Z,22.22
2019-02-05T04:17:22.880Z,20.65
2019-02-05T04:18:43.152Z,24.32
2019-02-05T04:20:02.639Z,23.27
2019-02-05T04:21:17.598Z,20.95
2019-02-05T04:22:31.122Z,19.92
2019-02-05T04:23:34.952Z,20.02
2019-02-05T04:25:08.217Z,22.27
2019-02-05T04:26:05.752Z,24.72
2019-02-05T04:27:24.208Z,20.40
2019-02-05T04:28:16.338Z,22.10
2019-02-05T04:29:22.588Z,26.05
2019-02-05T04:30:42.973Z,25.92
2019-02-05T04:32:16.650Z,25.48
2019-02-05T04:33:06.635Z,23.40
2019-02-05T04:34:13.665Z,24.82
2019-02-05T04:35:14.247Z,22.40
2019-02-05T04:36:35.312Z,20.40
2019-02-05T04:37:43.304Z,25.70
2019-02-05T04:39:20.695Z,28.23
2019-02-05T04:40:38.983Z,25.12
2019-02-05T04:41:26.664Z,19.65
2019-02-05T04:42:29.208Z,23.32
2019-02-05T04:43:36.996Z,21.07
2019-02-05T04:44:55.243Z,24.35
2019-02-05T04:45:59.040Z,21.62
2019-02-05T04:47:07.645Z,22.62
2019-02-05T04:48:21.886Z,22.70
2019-02-05T04:49:36.336Z,24.82
2019-02-05T04:50:42.798Z,21.20
2019-02-05T04:51:59.385Z,20.85
2019-02-05T04:53:07.508Z,19.27
2019-02-05T04:53:57.561Z,25.35
2019-02-05T04:54:56.396Z,23.83
2019-02-05T04:55:54.398Z,25.08
2019-02-05T04:57:13.466Z,22.52
2019-02-05T04:58:32.713Z,21.45
2019-02-05T04:59:22.715Z,21.65
2019-02-05T05:00:30.102Z,20.75
2019-02-05T05:01:33.503Z,22.27
2019-02-05T05:03:06.878Z,23.07
2019-02-05T05:04:18.039Z,22.00
2019-02-05T05:05:21.935Z,24.87
2019-02-05T05:06:28.049Z,23.60
2019-02-05T05:07:42.906Z,20.62
2019-02-05T05:08:37.014Z,20.88
2019-02-05T05:09:27.150Z,22.87
2019-02-05T05:10:05.563Z,22.02
2019-02-05T05:10:43.775Z,22.22
2019-02-05T05:11:21.456Z,24.45
2019-02-05T05:11:59.215Z,21.00
2019-02-05T05:12:36.984Z,23.47
2019-02-05T05:13:15.243Z,23.52
2019-02-05T05:13:53.320Z,20.40
2019-02-05T05:14:30.769Z,27.13
2019-02-05T05:15:10.561Z,25.25
2019-02-05T05:15:48.490Z,23.85
2019-02-05T05:16:26.382Z,23.07
2019-02-05T05:17:04.254Z,19.25
2019-02-05T05:17:42.135Z,24.10
2019-02-05T05:18:19.643Z,24.18
2019-02-05T05:18:57.478Z,22.07
2019-02-05T05:19:35.520Z,27.32
2019-02-05T05:20:13.693Z,29.27
2019-02-05T05:20:50.959Z,22.42
2019-02-05T05:21:28.815Z,23.07
2019-02-05T05:22:06.960Z,21.12
2019-02-05T05:22:44.726Z,23.83
2019-02-05T05:23:22.578Z,24.95
2019-02-05T05:24:00.369Z,23.00
2019-02-05T05:24:37.900Z,24.02
2019-02-05T05:25:16.048Z,23.57
2019-02-05T05:25:54.450Z,21.45
2019-02-05T05:26:41.381Z,25.05
2019-02-05T05:27:21.268Z,26.35
2019-02-05T05:28:09.650Z,20.05
2019-02-05T05:28:43.307Z,22.37
2019-02-05T05:29:21.284Z,23.83
2019-02-05T05:29:59.175Z,24.95
2019-02-05T05:30:37.328Z,21.80
2019-02-05T05:31:15.219Z,22.25
2019-02-05T05:31:53.574Z,25.82
2019-02-05T05:32:31.297Z,23.50
2019-02-05T05:33:09.189Z,23.77
2019-02-05T05:33:49.434Z,23.75
2019-02-05T05:34:27.197Z,20.68
2019-02-05T05:35:06.969Z,25.77
2019-02-05T05:35:44.687Z,22.02
2019-02-05T05:36:22.734Z,24.12
2019-02-05T05:36:58.570Z,21.40
2019-02-05T05:37:35.987Z,22.52
2019-02-05T05:38:13.979Z,24.75
2019-02-05T05:38:52.044Z,22.75
2019-02-05T05:39:30.248Z,19.32
2019-02-05T05:40:07.812Z,24.67
2019-02-05T05:40:45.817Z,21.55
2019-02-05T05:41:23.469Z,22.37
2019-02-05T05:42:01.361Z,21.00
2019-02-05T05:42:39.460Z,25.35
2019-02-05T05:43:17.476Z,22.40
2019-02-05T05:43:54.342Z,22.27
2019-02-05T05:44:32.105Z,23.60
2019-02-05T05:45:12.726Z,22.22
2019-02-05T05:45:50.722Z,24.75
2019-02-05T05:46:28.445Z,21.40
2019-02-05T05:47:06.217Z,23.98
2019-02-05T05:47:43.743Z,21.37
2019-02-05T05:48:21.102Z,21.20
2019-02-05T05:48:58.845Z,21.62
2019-02-05T05:49:36.879Z,22.25
2019-02-05T05:50:15.839Z,24.70
2019-02-05T05:50:53.851Z,25.20
2019-02-05T05:51:31.630Z,23.50
2019-02-05T05:52:09.355Z,24.00
2019-02-05T05:52:46.841Z,24.30
2019-02-05T05:53:24.538Z,19.27
2019-02-05T05:54:02.370Z,19.62
2019-02-05T05:54:40.048Z,21.97
2019-02-05T05:55:18.090Z,22.02
2019-02-05T05:55:55.707Z,25.80
2019-02-05T05:56:33.508Z,24.67
2019-02-05T05:57:11.015Z,20.57
2019-02-05T05:57:48.407Z,27.07
2019-02-05T05:58:27.512Z,21.50
2019-02-05T05:59:05.476Z,24.57
2019-02-05T05:59:43.187Z,23.90
2019-02-05T06:00:20.996Z,21.90
2019-02-05T06:00:58.349Z,22.75
2019-02-05T06:01:36.452Z,22.10
2019-02-05T06:02:13.615Z,22.10
2019-02-05T06:02:50.976Z,23.73
2019-02-05T06:03:28.334Z,21.55
2019-02-05T06:04:06.476Z,25.40
2019-02-05T06:04:44.006Z,24.63
2019-02-05T06:05:22.438Z,23.83
2019-02-05T06:06:00.736Z,22.55
2019-02-05T06:06:38.702Z,23.27
2019-02-05T06:07:16.182Z,25.72
2019-02-05T06:07:54.317Z,26.50
2019-02-05T06:08:31.700Z,23.18
2019-02-05T06:09:09.743Z,22.62
2019-02-05T06:09:47.891Z,24.10
2019-02-05T06:10:25.265Z,25.68
2019-02-05T06:11:02.698Z,27.77
2019-02-05T06:11:40.515Z,26.05
2019-02-05T06:12:18.162Z,25.30
2019-02-05T06:12:55.645Z,27.73
2019-02-05T06:13:33.115Z,25.10
2019-02-05T06:14:10.856Z,29.32
2019-02-05T06:14:48.283Z,23.92
2019-02-05T06:15:25.513Z,22.60
2019-02-05T06:16:03.563Z,25.52
2019-02-05T06:16:41.327Z,24.47
2019-02-05T06:17:18.603Z,26.90
2019-02-05T06:17:55.975Z,21.40
2019-02-05T06:18:33.941Z,25.02
2019-02-05T06:19:11.987Z,22.05
2019-02-05T06:19:50.580Z,24.18
2019-02-05T06:20:28.203Z,24.15
2019-02-05T06:21:05.981Z,27.58
2019-02-05T06:21:43.640Z,24.32
2019-02-05T06:22:21.100Z,24.27
2019-02-05T06:22:58.937Z,24.32
2019-02-05T06:23:36.055Z,23.65
2019-02-05T06:24:13.864Z,25.12
2019-02-05T06:24:51.527Z,22.27
2019-02-05T06:25:29.004Z,23.10
2019-02-05T06:26:06.814Z,22.98
2019-02-05T06:26:44.671Z,25.12
2019-02-05T06:27:22.392Z,21.33
2019-02-05T06:28:00.349Z,20.35
2019-02-05T06:28:38.355Z,22.17
2019-02-05T06:29:16.485Z,26.50
2019-02-05T06:29:54.110Z,22.90
2019-02-05T06:30:31.818Z,21.27
2019-02-05T06:31:09.878Z,23.87
2019-02-05T06:31:47.610Z,28.23
2019-02-05T06:32:28.449Z,22.22
2019-02-05T06:33:06.208Z,30.15
2019-02-05T06:33:43.325Z,25.15
2019-02-05T06:34:20.975Z,24.20
2019-02-05T06:34:59.080Z,23.30
2019-02-05T06:35:37.075Z,27.00
2019-02-05T06:36:15.143Z,24.50
2019-02-05T06:36:52.894Z,27.00
2019-02-05T06:37:30.433Z,29.92
2019-02-05T06:38:07.910Z,26.35
2019-02-05T06:38:45.496Z,29.55
2019-02-05T06:39:24.765Z,23.73
2019-02-05T06:40:02.400Z,26.05
2019-02-05T06:40:40.539Z,24.35
2019-02-05T06:41:18.711Z,27.25
2019-02-05T06:41:56.250Z,25.12
2019-02-05T06:42:34.355Z,25.80
2019-02-05T06:43:12.675Z,27.48
2019-02-05T06:43:49.753Z,26.25
2019-02-05T06:44:28.969Z,22.42
2019-02-05T06:45:08.186Z,27.32
2019-02-05T06:45:45.948Z,24.40
2019-02-05T06:46:24.035Z,27.30
2019-02-05T06:47:02.144Z,24.37
2019-02-05T06:47:40.247Z,23.27
2019-02-05T06:48:18.106Z,27.75
2019-02-05T06:48:55.689Z,26.87
2019-02-05T06:49:33.663Z,24.40
2019-02-05T06:50:11.414Z,24.90
2019-02-05T06:50:56.741Z,28.75
2019-02-05T06:51:33.717Z,24.15
2019-02-05T06:52:11.813Z,27.30
2019-02-05T06:52:49.664Z,28.65
2019-02-05T06:53:27.091Z,27.27
2019-02-05T06:54:05.182Z,26.20
2019-02-05T06:54:42.840Z,25.65
2019-02-05T06:55:21.092Z,27.87
2019-02-05T06:55:58.507Z,26.97
2019-02-05T06:56:36.291Z,27.35
2019-02-05T06:57:14.507Z,24.52
2019-02-05T06:57:52.175Z,25.45
2019-02-05T06:58:29.700Z,25.35
2019-02-05T06:59:07.540Z,26.48
2019-02-05T06:59:44.945Z,24.95
2019-02-05T07:00:23.147Z,24.70
2019-02-05T07:01:01.119Z,25.57
2019-02-05T07:01:38.910Z,28.00
2019-02-05T07:02:16.775Z,26.90
2019-02-05T07:02:54.453Z,27.93
2019-02-05T07:03:32.044Z,27.37
2019-02-05T07:04:09.209Z,27.90
2019-02-05T07:04:46.281Z,25.80
2019-02-05T07:05:23.884Z,22.80
2019-02-05T07:06:01.644Z,26.82
2019-02-05T07:06:39.336Z,23.95
2019-02-05T07:07:17.211Z,23.15
2019-02-05T07:08:13.554Z,26.37
2019-02-05T07:08:51.017Z,26.70
2019-02-05T07:09:28.428Z,27.52
2019-02-05T07:10:07.532Z,24.60
2019-02-05T07:10:45.019Z,27.35
2019-02-05T07:11:22.853Z,23.50
2019-02-05T07:12:00.759Z,24.57
2019-02-05T07:12:38.791Z,25.43
2019-02-05T07:13:16.332Z,24.92
2019-02-05T07:13:54.050Z,25.55
2019-02-05T07:14:31.498Z,23.60
2019-02-05T07:15:09.832Z,25.23
2019-02-05T07:15:47.907Z,24.07
2019-02-05T07:16:26.300Z,26.77
2019-02-05T07:17:04.189Z,24.37
2019-02-05T07:17:49.265Z,27.42
2019-02-05T07:18:21.822Z,31.25
2019-02-05T07:18:59.583Z,23.70
2019-02-05T07:19:37.304Z,27.00
2019-02-05T07:20:15.906Z,28.25
2019-02-05T07:20:53.896Z,25.00
2019-02-05T07:21:31.979Z,27.77
2019-02-05T07:22:10.534Z,26.23
2019-02-05T07:22:48.447Z,26.68
2019-02-05T07:23:26.438Z,25.27
2019-02-05T07:24:04.247Z,24.35
2019-02-05T07:24:42.009Z,24.98
2019-02-05T07:25:20.237Z,26.77
2019-02-05T07:25:58.193Z,26.17
2019-02-05T07:26:36.259Z,27.25
2019-02-05T07:27:14.112Z,25.97
2019-02-05T07:27:52.195Z,26.20
2019-02-05T07:28:29.268Z,25.70
2019-02-05T07:29:08.078Z,26.05
2019-02-05T07:29:45.531Z,27.65
2019-02-05T07:30:24.544Z,25.25
2019-02-05T07:31:02.043Z,24.12
2019-02-05T07:31:40.007Z,25.65
2019-02-05T07:32:17.693Z,27.95
2019-02-05T07:32:55.247Z,23.10
2019-02-05T07:33:33.268Z,26.48
2019-02-05T07:34:10.975Z,26.15
2019-02-05T07:34:48.325Z,24.50
2019-02-05T07:35:25.908Z,30.27
2019-02-05T07:36:04.338Z,26.95
2019-02-05T07:36:41.068Z,26.37
2019-02-05T07:37:19.165Z,25.15
2019-02-05T07:37:57.052Z,23.27
2019-02-05T07:38:34.855Z,26.55
2019-02-05T07:39:12.413Z,24.85
2019-02-05T07:39:50.156Z,23.62
2019-02-05T07:40:28.395Z,27.10
2019-02-05T07:41:06.474Z,24.60
2019-02-05T07:41:44.747Z,26.90
2019-02-05T07:42:21.480Z,32.73
2019-02-05T07:42:58.926Z,32.05
2019-02-05T07:43:36.638Z,27.00
2019-02-05T07:44:14.862Z,27.00
2019-02-05T07:44:52.003Z,26.07
2019-02-05T07:45:29.688Z,25.62
2019-02-05T07:46:07.647Z,25.97
2019-02-05T07:46:45.127Z,28.87
2019-02-05T07:47:23.557Z,26.42
2019-02-05T07:48:01.312Z,26.70
2019-02-05T07:48:39.464Z,24.05
2019-02-05T07:49:17.429Z,25.68
2019-02-05T07:49:54.880Z,26.75
2019-02-05T07:50:33.456Z,28.42
2019-02-05T07:51:13.218Z,27.73
2019-02-05T07:51:50.918Z,24.70
2019-02-05T07:52:28.961Z,28.25
2019-02-05T07:53:06.163Z,25.82
2019-02-05T07:53:44.207Z,28.23
2019-02-05T07:54:21.628Z,23.80
2019-02-05T07:54:59.014Z,26.97
2019-02-05T07:55:36.383Z,24.67
2019-02-05T07:56:14.332Z,26.45
2019-02-05T07:56:52.156Z,28.47
2019-02-05T07:57:29.574Z,25.72
2019-02-05T07:58:07.453Z,25.25
2019-02-05T07:58:45.142Z,24.80
2019-02-05T07:59:23.441Z,26.73
2019-02-05T08:00:00.924Z,22.60
2019-02-05T08:00:38.464Z,26.27
2019-02-05T08:01:17.690Z,27.73
2019-02-05T08:01:55.801Z,25.65
2019-02-05T08:02:33.570Z,28.17
2019-02-05T08:03:11.634Z,27.65
2019-02-05T08:03:49.715Z,25.05
2019-02-05T08:04:27.964Z,30.27
2019-02-05T08:05:07.085Z,29.63
2019-02-05T08:05:44.900Z,27.17
2019-02-05T08:06:23.044Z,27.10
2019-02-05T08:07:01.065Z,26.73
2019-02-05T08:07:38.522Z,31.10
2019-02-05T08:08:16.843Z,29.80
2019-02-05T08:08:54.752Z,25.95
2019-02-05T08:09:32.488Z,27.52
2019-02-05T08:10:11.607Z,27.35
2019-02-05T08:10:49.873Z,28.10
2019-02-05T08:11:27.924Z,24.37
2019-02-05T08:12:06.592Z,26.75
2019-02-05T08:12:44.208Z,24.07
2019-02-05T08:13:22.505Z,27.77
2019-02-05T08:14:00.202Z,28.38
2019-02-05T08:14:44.654Z,26.57
2019-02-05T08:15:25.464Z,24.98
2019-02-05T08:16:03.295Z,29.55
2019-02-05T08:16:41.031Z,25.43
2019-02-05T08:17:19.052Z,29.55
2019-02-05T08:17:57.109Z,27.48
2019-02-05T08:18:34.896Z,31.35
2019-02-05T08:19:12.785Z,25.55
2019-02-05T08:19:50.308Z,31.73
2019-02-05T08:20:28.813Z,33.25
2019-02-05T08:21:08.510Z,32.65
2019-02-05T08:21:46.323Z,26.87
2019-02-05T08:22:24.514Z,22.95
2019-02-05T08:23:02.003Z,25.52
2019-02-05T08:23:39.436Z,27.52
2019-02-05T08:24:17.279Z,25.70
2019-02-05T08:24:55.283Z,24.50
2019-02-05T08:25:33.333Z,26.62
2019-02-05T08:26:11.626Z,24.12
2019-02-05T08:26:49.591Z,23.18
2019-02-05T08:27:27.056Z,26.27
2019-02-05T08:28:05.553Z,31.93
2019-02-05T08:28:43.218Z,26.20
2019-02-05T08:29:21.908Z,27.05
2019-02-05T08:29:59.874Z,31.85
2019-02-05T08:30:39.744Z,28.62
2019-02-05T08:31:17.947Z,26.77
2019-02-05T08:31:56.324Z,29.15
2019-02-05T08:32:34.308Z,26.37
2019-02-05T08:33:12.134Z,25.10
2019-02-05T08:33:50.619Z,30.10
2019-02-05T08:34:27.857Z,23.30
2019-02-05T08:35:06.096Z,26.10
2019-02-05T08:35:44.030Z,27.35
2019-02-05T08:36:22.102Z,25.52
2019-02-05T08:37:00.319Z,26.97
2019-02-05T08:37:39.757Z,27.77
2019-02-05T08:38:17.862Z,22.90
2019-02-05T08:38:58.295Z,29.82
2019-02-05T08:39:36.411Z,31.57
2019-02-05T08:40:16.548Z,28.87
2019-02-05T08:40:54.564Z,26.97
2019-02-05T08:41:33.120Z,29.85
2019-02-05T08:42:10.638Z,27.73
2019-02-05T08:42:51.674Z,27.05
2019-02-05T08:43:29.678Z,33.73
2019-02-05T08:44:07.035Z,25.85
2019-02-05T08:44:44.704Z,29.40
2019-02-05T08:45:24.281Z,25.40
2019-02-05T08:46:01.142Z,28.55
2019-02-05T08:46:38.609Z,24.77
2019-02-05T08:47:16.588Z,26.90
2019-02-05T08:47:54.607Z,26.68